createdAt,value
2018-07-11T00:02:15.057Z,49.90
2018-07-11T00:04:44.043Z,51.00
2018-07-11T00:07:13.067Z,50.60
2018-07-11T00:09:41.324Z,50.80
2018-07-11T00:12:10.289Z,56.00
2018-07-11T00:14:38.511Z,55.90
2018-07-11T00:17:06.768Z,50.50
2018-07-11T00:19:35.071Z,54.50
2018-07-11T00:22:03.278Z,50.90
2018-07-11T00:24:31.509Z,51.10
2018-07-11T00:26:59.752Z,50.20
2018-07-11T00:29:28.007Z,50.50
2018-07-11T00:31:56.258Z,55.70
2018-07-11T00:34:24.508Z,52.50
2018-07-11T00:36:52.760Z,53.30
2018-07-11T00:39:20.979Z,53.30
2018-07-11T00:41:49.228Z,54.50
2018-07-11T00:44:18.259Z,50.50
2018-07-11T00:46:46.463Z,50.60
2018-07-11T00:49:14.684Z,49.90
2018-07-11T00:51:42.944Z,49.80
2018-07-11T00:54:11.197Z,49.40
2018-07-11T00:56:39.400Z,49.20
2018-07-11T00:59:08.448Z,49.00
2018-07-11T01:01:36.696Z,49.00
2018-07-11T01:04:05.671Z,51.00
2018-07-11T01:06:34.657Z,49.70
2018-07-11T01:09:03.635Z,49.70
2018-07-11T01:11:31.846Z,49.70
2018-07-11T01:14:00.103Z,49.40
2018-07-11T01:16:29.080Z,49.00
2018-07-11T01:18:57.288Z,48.90
2018-07-11T01:21:25.518Z,49.50
2018-07-11T01:23:53.731Z,49.20
2018-07-11T01:26:21.998Z,48.90
2018-07-11T01:28:50.958Z,48.60
2018-07-11T01:31:19.232Z,48.60
2018-07-11T01:33:47.445Z,50.50
2018-07-11T01:36:15.720Z,48.60
2018-07-11T01:38:44.698Z,48.60
2018-07-11T01:41:12.929Z,48.60
2018-07-11T01:43:41.146Z,49.10
2018-07-11T01:46:09.361Z,49.80
2018-07-11T01:48:37.576Z,48.90
2018-07-11T01:51:05.846Z,49.10
2018-07-11T01:53:34.055Z,49.10
2018-07-11T01:56:02.290Z,50.10
2018-07-11T01:58:30.510Z,49.90
2018-07-11T02:00:58.768Z,49.40
2018-07-11T02:03:27.001Z,49.60
2018-07-11T02:05:55.268Z,50.30
2018-07-11T02:08:23.493Z,54.60
2018-07-11T02:10:51.747Z,55.60
2018-07-11T02:13:20.002Z,51.40
2018-07-11T02:15:48.215Z,50.80
2018-07-11T02:18:16.424Z,50.40
2018-07-11T02:20:44.650Z,51.30
2018-07-11T02:23:12.902Z,53.10
2018-07-11T02:25:41.914Z,50.80
2018-07-11T02:28:10.173Z,50.90
2018-07-11T02:30:39.174Z,53.20
2018-07-11T02:33:07.424Z,53.20
2018-07-11T02:35:35.638Z,54.00
2018-07-11T02:38:03.850Z,52.20
2018-07-11T02:40:32.108Z,51.30
2018-07-11T02:43:00.382Z,52.00
2018-07-11T02:45:28.598Z,51.00
2018-07-11T02:47:56.860Z,51.30
2018-07-11T02:50:25.077Z,52.90
2018-07-11T02:52:53.333Z,52.80
2018-07-11T02:55:21.591Z,51.50
2018-07-11T02:57:49.839Z,50.90
2018-07-11T03:00:18.065Z,51.00
2018-07-11T03:02:47.085Z,51.30
2018-07-11T03:05:15.343Z,51.30
2018-07-11T03:07:44.369Z,51.70
2018-07-11T03:10:12.625Z,51.70
2018-07-11T03:12:40.879Z,51.70
2018-07-11T03:15:09.131Z,51.20
2018-07-11T03:17:37.338Z,51.70
2018-07-11T03:20:06.317Z,52.90
2018-07-11T03:22:34.588Z,53.30
2018-07-11T03:25:02.850Z,51.30
2018-07-11T03:27:31.094Z,53.10
2018-07-11T03:29:59.380Z,56.00
2018-07-11T03:32:27.729Z,54.10
2018-07-11T03:34:55.885Z,53.00
2018-07-11T03:37:24.144Z,57.70
2018-07-11T03:39:52.352Z,52.70
2018-07-11T03:42:21.370Z,53.30
2018-07-11T03:44:49.608Z,53.20
2018-07-11T03:47:17.829Z,52.00
2018-07-11T03:49:46.039Z,56.80
2018-07-11T03:52:14.302Z,53.70
2018-07-11T03:54:42.516Z,53.20
2018-07-11T03:57:11.556Z,54.80
2018-07-11T03:59:39.810Z,54.70
2018-07-11T04:02:08.780Z,53.40
2018-07-11T04:04:37.802Z,52.90
2018-07-11T04:07:06.024Z,52.80
2018-07-11T04:09:34.257Z,55.00
2018-07-11T04:12:02.529Z,53.30
2018-07-11T04:14:31.495Z,71.00
2018-07-11T04:17:00.496Z,61.30
2018-07-11T04:19:29.490Z,64.30
2018-07-11T04:21:57.741Z,64.80
2018-07-11T04:24:25.948Z,58.20
2018-07-11T04:26:54.980Z,55.90
2018-07-11T04:29:23.200Z,56.00
2018-07-11T04:31:51.469Z,56.00
2018-07-11T04:34:19.722Z,55.50
2018-07-11T04:36:47.986Z,54.80
2018-07-11T04:39:16.450Z,64.70
2018-07-11T04:41:45.288Z,58.70
2018-07-11T04:44:13.488Z,56.80
2018-07-11T04:46:42.484Z,55.00
2018-07-11T04:49:11.512Z,54.50
2018-07-11T04:51:39.762Z,54.50
2018-07-11T04:54:08.752Z,54.10
2018-07-11T04:56:37.089Z,54.10
2018-07-11T04:59:05.268Z,53.90
2018-07-11T05:01:33.540Z,53.90
2018-07-11T05:04:01.798Z,62.70
2018-07-11T05:06:30.023Z,55.60
2018-07-11T05:08:58.278Z,54.50
2018-07-11T05:11:26.548Z,56.60
2018-07-11T05:13:54.864Z,57.40
2018-07-11T05:16:23.026Z,56.90
2018-07-11T05:18:51.251Z,55.00
2018-07-11T05:21:19.529Z,57.00
2018-07-11T05:23:47.743Z,64.80
2018-07-11T05:26:16.015Z,55.60
2018-07-11T05:28:44.224Z,55.60
2018-07-11T05:31:13.254Z,56.30
2018-07-11T05:33:41.492Z,55.70
2018-07-11T05:36:09.753Z,56.40
2018-07-11T05:38:37.967Z,54.30
2018-07-11T05:41:06.194Z,54.30
2018-07-11T05:43:34.404Z,54.20
2018-07-11T05:46:03.439Z,54.50
2018-07-11T05:48:31.663Z,54.50
2018-07-11T05:51:00.658Z,55.80
2018-07-11T05:53:28.872Z,55.60
2018-07-11T05:55:57.098Z,55.30
2018-07-11T05:58:25.311Z,60.10
2018-07-11T06:00:53.566Z,56.30
2018-07-11T06:03:21.819Z,55.40
2018-07-11T06:05:50.830Z,58.40
2018-07-11T06:08:19.093Z,58.30
2018-07-11T06:10:47.343Z,59.70
2018-07-11T06:13:15.626Z,60.40
2018-07-11T06:15:43.812Z,56.80
2018-07-11T06:18:12.063Z,59.90
2018-07-11T06:20:40.281Z,59.40
2018-07-11T06:23:08.515Z,66.20
2018-07-11T06:25:36.735Z,68.80
2018-07-11T06:28:04.999Z,74.80
2018-07-11T06:30:33.248Z,61.40
2018-07-11T06:33:01.471Z,70.10
2018-07-11T06:35:29.696Z,67.00
2018-07-11T06:37:58.046Z,68.70
2018-07-11T06:40:26.182Z,77.50
2018-07-11T06:42:54.439Z,68.90
2018-07-11T06:45:22.655Z,67.30
2018-07-11T06:47:50.898Z,59.90
2018-07-11T06:50:19.150Z,68.50
2018-07-11T06:52:47.418Z,74.00
2018-07-11T06:55:15.617Z,62.10
2018-07-11T06:57:43.845Z,62.40
2018-07-11T07:00:12.054Z,60.00
2018-07-11T07:02:40.315Z,58.30
2018-07-11T07:05:08.534Z,66.70
2018-07-11T07:07:36.744Z,67.30
2018-07-11T07:10:05.723Z,58.30
2018-07-11T07:12:33.946Z,58.20
2018-07-11T07:15:02.211Z,59.10
2018-07-11T07:17:31.199Z,58.30
2018-07-11T07:20:00.215Z,58.40
2018-07-11T07:22:28.494Z,58.40
2018-07-11T07:24:56.701Z,57.20
2018-07-11T07:27:24.990Z,57.10
2018-07-11T07:29:53.221Z,56.70
2018-07-11T07:32:21.469Z,56.80
2018-07-11T07:34:50.525Z,57.70
2018-07-11T07:37:18.685Z,57.60
2018-07-11T07:39:46.901Z,56.40
2018-07-11T07:42:15.136Z,56.20
2018-07-11T07:44:43.335Z,56.30
2018-07-11T07:47:11.698Z,55.90
2018-07-11T07:49:39.861Z,56.10
2018-07-11T07:52:08.127Z,56.00
2018-07-11T07:54:36.402Z,55.60
2018-07-11T07:57:04.657Z,57.40
2018-07-11T07:59:33.661Z,55.60
2018-07-11T08:02:01.885Z,55.60
2018-07-11T08:04:30.126Z,55.70
2018-07-11T08:06:58.389Z,55.20
2018-07-11T08:09:27.399Z,54.80
2018-07-11T08:11:55.673Z,54.90
2018-07-11T08:14:23.914Z,56.40
2018-07-11T08:16:52.182Z,56.40
2018-07-11T08:19:20.422Z,56.50
2018-07-11T08:21:48.672Z,57.10
2018-07-11T08:27:27.493Z,55.50
2018-07-11T08:29:55.684Z,54.70
2018-07-11T08:32:23.904Z,55.90
2018-07-11T08:34:52.127Z,55.50
2018-07-11T08:37:21.166Z,54.40
2018-07-11T08:39:49.369Z,54.40
2018-07-11T08:42:17.580Z,54.00
2018-07-11T08:44:45.811Z,54.10
2018-07-11T08:47:14.069Z,53.90
2018-07-11T08:49:42.325Z,53.80
2018-07-11T08:52:10.562Z,53.90
2018-07-11T08:54:38.822Z,54.40
2018-07-11T08:57:07.027Z,53.70
2018-07-11T08:59:36.063Z,54.10
2018-07-11T09:02:04.305Z,54.10
2018-07-11T09:04:33.337Z,55.20
2018-07-11T09:07:01.540Z,55.20
2018-07-11T09:09:29.767Z,53.90
2018-07-11T09:11:58.033Z,53.70
2018-07-11T09:14:26.997Z,53.70
2018-07-11T09:16:55.271Z,53.70
2018-07-11T09:19:23.467Z,54.10
2018-07-11T09:21:52.505Z,53.70
2018-07-11T09:24:20.765Z,53.70
2018-07-11T09:26:49.781Z,53.80
2018-07-11T09:29:18.040Z,53.80
2018-07-11T09:31:46.289Z,53.60
2018-07-11T09:34:15.293Z,53.40
2018-07-11T09:36:44.351Z,53.10
2018-07-11T09:39:12.563Z,53.20
2018-07-11T09:41:41.603Z,52.80
2018-07-11T09:44:09.816Z,52.80
2018-07-11T09:46:38.839Z,52.30
2018-07-11T09:49:07.872Z,52.00
2018-07-11T09:51:36.069Z,52.00
2018-07-11T09:54:04.297Z,51.60
2018-07-11T09:56:32.519Z,51.00
2018-07-11T09:59:00.729Z,51.30
2018-07-11T10:01:28.941Z,51.60
2018-07-11T10:03:57.213Z,51.60
2018-07-11T10:06:25.416Z,52.00
2018-07-11T10:08:53.688Z,50.70
2018-07-11T10:11:21.923Z,51.40
2018-07-11T10:13:50.136Z,50.60
2018-07-11T10:16:19.125Z,51.20
2018-07-11T10:18:47.392Z,51.20
2018-07-11T10:21:15.611Z,50.80
2018-07-11T10:23:44.617Z,48.70
2018-07-11T10:26:13.590Z,49.30
2018-07-11T10:28:41.807Z,49.30
2018-07-11T10:31:10.065Z,50.80
2018-07-11T10:33:39.052Z,50.30
2018-07-11T10:36:08.033Z,51.60
2018-07-11T10:38:36.302Z,51.00
2018-07-11T10:41:04.516Z,51.20
2018-07-11T10:43:33.527Z,50.40
2018-07-11T10:46:02.519Z,51.00
2018-07-11T10:48:30.811Z,51.00
2018-07-11T10:50:59.023Z,51.20
2018-07-11T10:53:27.316Z,50.70
2018-07-11T10:55:55.562Z,50.30
2018-07-11T10:58:23.833Z,50.10
2018-07-11T11:01:05.030Z,50.70
2018-07-11T11:03:20.304Z,50.80
2018-07-11T11:05:48.573Z,50.70
2018-07-11T11:08:17.591Z,50.40
2018-07-11T11:10:45.804Z,50.40
2018-07-11T11:13:14.028Z,50.30
2018-07-11T11:15:42.282Z,49.10
2018-07-11T11:18:10.545Z,50.70
2018-07-11T11:20:38.746Z,50.70
2018-07-11T11:23:07.004Z,49.50
2018-07-11T11:25:35.214Z,50.00
2018-07-11T11:28:03.440Z,49.50
2018-07-11T11:30:31.682Z,44.80
2018-07-11T11:33:00.720Z,47.60
2018-07-11T11:35:28.922Z,47.50
2018-07-11T11:37:58.910Z,48.30
2018-07-11T11:40:27.122Z,48.80
2018-07-11T11:42:55.476Z,48.00
2018-07-11T11:45:23.652Z,48.80
2018-07-11T11:47:51.864Z,45.00
2018-07-11T11:50:20.122Z,48.30
2018-07-11T11:52:48.406Z,48.00
2018-07-11T11:55:16.687Z,48.50
2018-07-11T11:57:44.896Z,48.80
2018-07-11T12:00:13.108Z,47.70
2018-07-11T12:02:41.320Z,49.20
2018-07-11T12:05:09.530Z,48.70
2018-07-11T12:07:37.799Z,49.40
2018-07-11T12:10:06.768Z,49.30
2018-07-11T12:12:34.998Z,49.30
2018-07-11T12:15:03.214Z,47.80
2018-07-11T12:17:31.496Z,47.70
2018-07-11T12:19:59.703Z,48.60
2018-07-11T12:22:27.993Z,48.30
2018-07-11T12:24:56.213Z,48.20
2018-07-11T12:27:24.474Z,47.40
2018-07-11T12:29:52.715Z,46.70
2018-07-11T12:32:20.931Z,46.70
2018-07-11T12:34:49.177Z,45.90
2018-07-11T12:37:17.389Z,47.80
2018-07-11T12:39:45.626Z,47.40
2018-07-11T12:42:13.841Z,47.30
2018-07-11T12:44:42.073Z,47.80
2018-07-11T12:47:10.277Z,46.70
2018-07-11T12:49:38.495Z,47.70
2018-07-11T12:52:07.494Z,45.60
2018-07-11T12:54:36.470Z,47.20
2018-07-11T12:57:04.741Z,47.20
2018-07-11T12:59:32.992Z,48.40
2018-07-11T13:02:01.209Z,47.40
2018-07-11T13:04:30.225Z,48.20
2018-07-11T13:06:59.258Z,47.40
2018-07-11T13:09:27.525Z,47.40
2018-07-11T13:11:55.779Z,48.30
2018-07-11T13:14:24.041Z,48.60
2018-07-11T13:16:52.362Z,47.90
2018-07-11T13:19:20.573Z,48.10
2018-07-11T13:21:49.552Z,46.10
2018-07-11T13:24:17.831Z,45.70
2018-07-11T13:26:46.043Z,46.80
2018-07-11T13:29:15.081Z,45.40
2018-07-11T13:31:43.302Z,45.40
2018-07-11T13:34:11.578Z,46.50
2018-07-11T13:36:39.784Z,46.80
2018-07-11T13:39:08.005Z,44.20
2018-07-11T13:41:36.238Z,45.60
2018-07-11T13:44:04.453Z,46.90
2018-07-11T13:46:32.731Z,46.30
2018-07-11T13:49:00.942Z,46.50
2018-07-11T13:51:29.984Z,41.90
2018-07-11T13:53:58.264Z,42.00
2018-07-11T13:56:26.501Z,43.00
2018-07-11T13:58:55.480Z,44.10
2018-07-11T14:01:24.519Z,45.50
2018-07-11T14:03:52.727Z,45.10
2018-07-11T14:06:20.968Z,45.10
2018-07-11T14:08:49.216Z,44.70
2018-07-11T14:11:18.245Z,45.50
2018-07-11T14:13:46.459Z,45.50
2018-07-11T14:16:14.741Z,44.60
2018-07-11T14:18:43.054Z,44.20
2018-07-11T14:21:12.082Z,44.30
2018-07-11T14:23:40.326Z,44.30
2018-07-11T14:26:08.644Z,43.80
2018-07-11T14:28:37.751Z,43.50
2018-07-11T14:31:05.970Z,44.10
2018-07-11T14:33:34.264Z,45.30
2018-07-11T14:36:02.527Z,45.00
2018-07-11T14:38:31.502Z,44.20
2018-07-11T14:40:59.848Z,44.20
2018-07-11T14:43:28.062Z,44.70
2018-07-11T14:45:57.061Z,44.60
2018-07-11T14:48:26.092Z,45.30
2018-07-11T14:50:54.310Z,45.30
2018-07-11T14:53:24.079Z,45.20
2018-07-11T14:55:52.301Z,45.20
2018-07-11T14:58:20.591Z,45.50
2018-07-11T15:00:49.620Z,45.00
2018-07-11T15:03:17.864Z,45.10
2018-07-11T15:05:46.882Z,45.40
2018-07-11T15:08:15.144Z,45.40
2018-07-11T15:10:43.309Z,45.40
2018-07-11T15:13:17.614Z,45.30
2018-07-11T15:15:46.649Z,45.80
2018-07-11T15:18:14.849Z,45.80
2018-07-11T15:20:43.139Z,45.80
2018-07-11T15:23:11.382Z,45.80
2018-07-11T15:25:39.592Z,46.00
2018-07-11T15:28:07.868Z,46.30
2018-07-11T15:30:36.078Z,46.40
2018-07-11T15:33:05.066Z,47.00
2018-07-11T15:35:34.079Z,47.20
2018-07-11T15:38:05.229Z,47.30
2018-07-11T15:40:33.491Z,47.30
2018-07-11T15:43:02.485Z,47.90
2018-07-11T15:45:31.514Z,47.50
2018-07-11T15:47:59.815Z,47.40
2018-07-11T15:50:28.069Z,47.30
2018-07-11T15:52:56.341Z,47.70
2018-07-11T15:55:24.597Z,47.70
2018-07-11T15:57:53.606Z,47.30
2018-07-11T16:00:21.826Z,47.30
2018-07-11T16:02:50.090Z,47.50
2018-07-11T16:05:18.415Z,46.70
2018-07-11T16:07:46.595Z,47.70
2018-07-11T16:10:15.617Z,47.70
2018-07-11T16:12:43.852Z,47.70
2018-07-11T16:15:12.076Z,47.60
2018-07-11T16:17:41.008Z,47.40
2018-07-11T16:20:09.254Z,46.60
2018-07-11T16:22:37.575Z,47.00
2018-07-11T16:25:05.838Z,47.00
2018-07-11T16:27:34.057Z,46.90
2018-07-11T16:30:02.294Z,46.90
2018-07-11T16:32:30.526Z,46.80
2018-07-11T16:34:58.792Z,46.80
2018-07-11T16:37:27.094Z,46.80
2018-07-11T16:39:55.357Z,46.90
2018-07-11T16:42:23.575Z,47.10
2018-07-11T16:44:51.838Z,47.40
2018-07-11T16:47:20.109Z,47.40
2018-07-11T16:49:48.363Z,47.70
2018-07-11T16:52:16.621Z,47.40
2018-07-11T16:54:44.846Z,47.20
2018-07-11T16:57:13.104Z,47.40
2018-07-11T16:59:41.305Z,47.30
2018-07-11T17:02:09.528Z,47.30
2018-07-11T17:04:37.793Z,47.40
2018-07-11T17:07:06.823Z,47.10
2018-07-11T17:09:35.091Z,47.10
2018-07-11T17:12:04.112Z,47.40
2018-07-11T17:14:32.438Z,47.40
2018-07-11T17:17:00.722Z,47.50
2018-07-11T17:19:29.741Z,47.30
2018-07-11T17:21:58.978Z,47.30
2018-07-11T17:24:27.202Z,47.70
2018-07-11T17:26:55.508Z,47.60
2018-07-11T17:29:23.759Z,48.30
2018-07-11T17:31:51.972Z,48.10
2018-07-11T17:34:20.216Z,47.60
2018-07-11T17:36:48.474Z,47.80
2018-07-11T17:39:17.510Z,48.30
2018-07-11T17:41:45.764Z,48.30
2018-07-11T17:44:13.998Z,48.00
2018-07-11T17:46:42.251Z,47.80
2018-07-11T17:49:10.465Z,49.30
2018-07-11T17:51:39.446Z,48.00
2018-07-11T17:54:08.456Z,48.00
2018-07-11T17:56:36.679Z,48.00
2018-07-11T17:59:05.697Z,48.90
2018-07-11T18:01:34.188Z,48.90
2018-07-11T18:04:02.423Z,49.70
2018-07-11T18:06:31.673Z,48.30
2018-07-11T18:08:59.889Z,48.40
2018-07-11T18:11:28.130Z,49.20
2018-07-11T18:13:57.442Z,48.50
2018-07-11T18:16:25.688Z,48.50
2018-07-11T18:18:53.895Z,48.60
2018-07-11T18:21:22.193Z,49.20
2018-07-11T18:23:50.407Z,48.50
2018-07-11T18:26:18.641Z,48.70
2018-07-11T18:28:46.882Z,49.20
2018-07-11T18:31:15.141Z,49.40
2018-07-11T18:33:43.360Z,49.50
2018-07-11T18:36:11.923Z,49.00
2018-07-11T18:38:40.150Z,49.60
2018-07-11T18:41:08.430Z,49.10
2018-07-11T18:43:36.646Z,49.40
2018-07-11T18:46:06.597Z,49.30
2018-07-11T18:48:34.820Z,49.20
2018-07-11T18:51:03.090Z,49.80
2018-07-11T18:53:31.313Z,49.50
2018-07-11T18:56:00.352Z,49.20
2018-07-11T18:58:28.671Z,49.20
2018-07-11T19:00:57.713Z,49.30
2018-07-11T19:03:25.918Z,49.20
2018-07-11T19:05:54.288Z,50.20
2018-07-11T19:08:22.485Z,49.20
2018-07-11T19:10:50.703Z,49.00
2018-07-11T19:13:18.927Z,49.10
2018-07-11T19:15:47.243Z,50.30
2018-07-11T19:18:16.290Z,49.20
2018-07-11T19:20:44.548Z,49.20
2018-07-11T19:23:12.764Z,49.00
2018-07-11T19:25:40.994Z,48.90
2018-07-11T19:28:09.270Z,49.10
2018-07-11T19:30:37.500Z,48.90
2018-07-11T19:33:05.792Z,49.10
2018-07-11T19:35:33.991Z,51.00
2018-07-11T19:38:02.221Z,50.90
2018-07-11T19:40:30.469Z,49.80
2018-07-11T19:42:58.720Z,51.20
2018-07-11T19:45:26.982Z,51.10
2018-07-11T19:47:56.022Z,49.40
2018-07-11T19:50:24.241Z,49.40
2018-07-11T19:52:53.299Z,49.60
2018-07-11T19:55:21.551Z,49.60
2018-07-11T19:57:49.833Z,49.40
2018-07-11T20:00:18.055Z,49.20
2018-07-11T20:02:46.322Z,49.60
2018-07-11T20:05:14.601Z,51.40
2018-07-11T20:07:42.883Z,50.10
2018-07-11T20:10:11.152Z,50.20
2018-07-11T20:12:39.383Z,55.40
2018-07-11T20:15:07.653Z,51.80
2018-07-11T20:17:35.939Z,53.50
2018-07-11T20:20:04.143Z,52.20
2018-07-11T20:22:32.395Z,51.60
2018-07-11T20:25:00.662Z,51.30
2018-07-11T20:27:28.879Z,54.30
2018-07-11T20:29:57.133Z,53.80
2018-07-11T20:32:25.360Z,54.30
2018-07-11T20:34:54.344Z,50.80
2018-07-11T20:37:23.338Z,54.00
2018-07-11T20:39:52.358Z,52.10
2018-07-11T20:42:21.372Z,52.20
2018-07-11T20:44:49.586Z,52.10
2018-07-11T20:47:17.810Z,54.20
2018-07-11T20:49:46.096Z,52.40
2018-07-11T20:52:14.341Z,53.20
2018-07-11T20:54:43.339Z,52.50
2018-07-11T20:57:12.368Z,56.90
2018-07-11T21:02:48.358Z,51.20
2018-07-11T21:05:16.589Z,51.90
2018-07-11T21:07:44.799Z,52.50
2018-07-11T21:10:13.077Z,52.20
2018-07-11T21:12:41.292Z,51.90
2018-07-11T21:15:09.566Z,51.70
2018-07-11T21:17:37.770Z,57.40
2018-07-11T21:20:06.788Z,52.70
2018-07-11T21:22:35.037Z,52.70
2018-07-11T21:25:04.004Z,52.50
2018-07-11T21:27:32.317Z,51.80
2018-07-11T21:30:01.292Z,52.20
2018-07-11T21:32:29.573Z,52.20
2018-07-11T21:34:57.805Z,52.70
2018-07-11T21:37:26.011Z,53.70
2018-07-11T21:39:54.228Z,52.10
2018-07-11T21:42:22.473Z,52.00
2018-07-11T21:44:50.673Z,53.40
2018-07-11T21:47:18.953Z,53.70
2018-07-11T21:49:47.160Z,52.50
2018-07-11T21:52:15.426Z,51.80
2018-07-11T21:54:43.677Z,53.10
2018-07-11T21:57:12.715Z,52.50
2018-07-11T21:59:40.906Z,52.50
2018-07-11T22:02:09.183Z,52.10
2018-07-11T22:04:37.396Z,60.60
2018-07-11T22:07:05.639Z,55.70
2018-07-11T22:09:33.889Z,53.00
2018-07-11T22:12:02.105Z,53.40
2018-07-11T22:14:30.325Z,52.80
2018-07-11T22:16:58.557Z,52.50
2018-07-11T22:19:26.811Z,54.80
2018-07-11T22:21:54.550Z,53.00
2018-07-11T22:24:22.286Z,63.20
2018-07-11T22:26:50.018Z,54.50
2018-07-11T22:29:17.792Z,56.60
2018-07-11T22:31:45.509Z,58.30
2018-07-11T22:34:13.247Z,59.50
2018-07-11T22:36:40.975Z,56.90
2018-07-11T22:39:08.742Z,54.10
2018-07-11T22:41:36.505Z,53.70
2018-07-11T22:44:04.238Z,56.20
2018-07-11T22:46:32.009Z,59.90
2018-07-11T22:48:59.738Z,58.20
2018-07-11T22:51:27.527Z,56.80
2018-07-11T22:53:55.290Z,55.90
2018-07-11T22:56:23.045Z,57.70
2018-07-11T22:58:50.827Z,55.60
2018-07-11T23:01:18.589Z,55.90
2018-07-11T23:03:46.342Z,60.10
2018-07-11T23:06:14.116Z,60.60
2018-07-11T23:08:41.828Z,55.80
2018-07-11T23:11:09.610Z,58.00
2018-07-11T23:13:37.357Z,56.70
2018-07-11T23:16:05.128Z,59.10
2018-07-11T23:18:32.838Z,60.00
2018-07-11T23:21:00.610Z,54.80
2018-07-11T23:23:28.320Z,54.30
2018-07-11T23:25:56.086Z,54.80
2018-07-11T23:28:23.856Z,54.20
2018-07-11T23:30:51.614Z,53.50
2018-07-11T23:33:19.362Z,53.50
2018-07-11T23:35:47.125Z,53.20
2018-07-11T23:38:15.767Z,53.40
2018-07-11T23:40:43.512Z,53.50
2018-07-11T23:43:11.996Z,55.80
2018-07-11T23:45:39.715Z,56.00
2018-07-11T23:48:08.206Z,53.30
2018-07-11T23:50:35.953Z,53.20
2018-07-11T23:53:03.674Z,54.20
2018-07-11T23:55:31.436Z,54.60
2018-07-11T23:57:59.920Z,53.90
